createdAt,value
2017-10-21T00:00:56.266Z,98.51
2017-10-21T00:01:56.255Z,97.75
2017-10-21T00:02:56.250Z,97.85
2017-10-21T00:03:56.241Z,98.8
2017-10-21T00:04:56.235Z,98.51
2017-10-21T00:05:56.228Z,98.8
2017-10-21T00:06:56.217Z,98.7
2017-10-21T00:07:56.206Z,98.8
2017-10-21T00:08:56.202Z,98.9
2017-10-21T00:09:56.198Z,98.51
2017-10-21T00:10:56.185Z,98.42
2017-10-21T00:11:56.176Z,98.42
2017-10-21T00:12:56.170Z,98.42
2017-10-21T00:13:56.157Z,98.7
2017-10-21T00:14:56.152Z,98.36
2017-10-21T00:15:56.146Z,98.46
2017-10-21T00:16:56.139Z,98.65
2017-10-21T00:17:56.129Z,98.85
2017-10-21T00:18:56.120Z,98.75
2017-10-21T00:19:56.110Z,98.65
2017-10-21T00:20:56.104Z,98.85
2017-10-21T00:21:55.773Z,98.65
2017-10-21T00:22:56.086Z,98.75
2017-10-21T00:23:56.082Z,98.75
2017-10-21T00:24:56.074Z,98.56
2017-10-21T00:25:56.064Z,98.75
2017-10-21T00:26:56.057Z,99.13
2017-10-21T00:27:56.043Z,99.13
2017-10-21T00:28:56.038Z,99.13
2017-10-21T00:29:56.039Z,99.04
2017-10-21T00:30:56.023Z,99.51
2017-10-21T00:31:56.013Z,99.04
2017-10-21T00:32:56.019Z,99.13
2017-10-21T00:33:55.996Z,99.13
2017-10-21T00:34:55.989Z,99.13
2017-10-21T00:35:55.982Z,99.13
2017-10-21T00:36:55.974Z,99.13
2017-10-21T00:37:55.968Z,99.13
2017-10-21T00:38:55.954Z,99.13
2017-10-21T00:39:55.946Z,99.04
2017-10-21T00:40:55.935Z,99.13
2017-10-21T00:41:55.930Z,99.32
2017-10-21T00:42:55.921Z,99.13
2017-10-21T00:43:55.920Z,99.22
2017-10-21T00:44:55.902Z,99.13
2017-10-21T00:45:55.896Z,99.51
2017-10-21T00:46:55.896Z,99.51
2017-10-21T00:47:55.881Z,99.32
2017-10-21T00:48:55.870Z,99.51
2017-10-21T00:49:55.862Z,98.36
2017-10-21T00:50:55.851Z,98.56
2017-10-21T00:51:55.848Z,98.61
2017-10-21T00:52:55.516Z,98.51
2017-10-21T00:53:55.827Z,98.61
2017-10-21T00:54:55.820Z,98.32
2017-10-21T00:55:55.488Z,98.51
2017-10-21T00:56:55.805Z,98.32
2017-10-21T00:57:55.472Z,98.22
2017-10-21T00:58:55.787Z,98.22
2017-10-21T00:59:55.782Z,98.32
2017-10-21T01:00:55.769Z,98.51
2017-10-21T01:01:55.766Z,98.8
2017-10-21T01:02:55.759Z,98.32
2017-10-21T01:03:55.749Z,98.51
2017-10-21T01:04:55.737Z,98.22
2017-10-21T01:05:55.727Z,98.61
2017-10-21T01:06:55.723Z,98.13
2017-10-21T01:07:55.714Z,98.42
2017-10-21T01:08:55.702Z,97.85
2017-10-21T01:09:55.697Z,97.75
2017-10-21T01:10:55.689Z,97.85
2017-10-21T01:11:55.679Z,97.75
2017-10-21T01:12:55.674Z,98.03
2017-10-21T01:13:55.664Z,97.94
2017-10-21T01:14:55.337Z,98.03
2017-10-21T01:15:55.647Z,98.03
2017-10-21T01:16:55.640Z,97.85
2017-10-21T01:17:55.632Z,98.03
2017-10-21T01:18:55.648Z,97.94
2017-10-21T01:19:55.614Z,98.13
2017-10-21T01:20:55.281Z,97.94
2017-10-21T01:21:55.599Z,97.94
2017-10-21T01:22:55.591Z,97.75
2017-10-21T01:23:55.585Z,97.75
2017-10-21T01:24:55.590Z,98.22
2017-10-21T01:25:55.566Z,98.13
2017-10-21T01:26:55.564Z,98.22
2017-10-21T01:27:55.554Z,98.08
2017-10-21T01:28:55.546Z,97.85
2017-10-21T01:29:55.211Z,97.56
2017-10-21T01:30:55.526Z,97.85
2017-10-21T01:31:55.519Z,98.08
2017-10-21T01:32:55.513Z,97.89
2017-10-21T01:33:55.178Z,97.71
2017-10-21T01:34:55.495Z,97.51
2017-10-21T01:35:55.487Z,97.61
2017-10-21T01:36:55.479Z,97.61
2017-10-21T01:37:55.465Z,97.61
2017-10-21T01:38:55.464Z,97.71
2017-10-21T01:39:55.452Z,97.71
2017-10-21T01:40:55.446Z,98.08
2017-10-21T01:41:55.114Z,97.22
2017-10-21T01:42:55.433Z,96.94
2017-10-21T01:43:55.424Z,96.94
2017-10-21T01:44:55.096Z,96.84
2017-10-21T01:45:55.406Z,96.94
2017-10-21T01:46:55.074Z,97.03
2017-10-21T01:47:55.392Z,96.94
2017-10-21T01:48:55.386Z,97.22
2017-10-21T01:49:55.380Z,97.51
2017-10-21T01:50:55.367Z,97.32
2017-10-21T01:51:55.368Z,97.22
2017-10-21T01:52:55.352Z,97.22
2017-10-21T01:53:55.353Z,97.22
2017-10-21T01:54:55.340Z,97.61
2017-10-21T01:55:55.330Z,97.51
2017-10-21T01:56:55.324Z,97.22
2017-10-21T01:57:55.324Z,97.22
2017-10-21T01:58:55.310Z,97.22
2017-10-21T01:59:55.300Z,97.42
2017-10-21T02:00:55.291Z,97.22
2017-10-21T02:01:55.288Z,97.51
2017-10-21T02:02:55.282Z,97.13
2017-10-21T02:03:55.266Z,97.32
2017-10-21T02:04:54.942Z,97.42
2017-10-21T02:05:55.252Z,97.13
2017-10-21T02:06:55.244Z,97.32
2017-10-21T02:07:55.236Z,97.42
2017-10-21T02:08:55.227Z,97.42
2017-10-21T02:09:54.896Z,97.61
2017-10-21T02:10:55.211Z,97.22
2017-10-21T02:11:55.205Z,97.13
2017-10-21T02:12:55.195Z,97.13
2017-10-21T02:13:55.196Z,97.32
2017-10-21T02:14:55.182Z,97.13
2017-10-21T02:15:55.175Z,97.51
2017-10-21T02:16:55.167Z,97.22
2017-10-21T02:17:55.159Z,97.42
2017-10-21T02:18:55.151Z,97.51
2017-10-21T02:19:55.145Z,97.51
2017-10-21T02:20:55.135Z,97.56
2017-10-21T02:21:55.124Z,97.61
2017-10-21T02:22:55.119Z,97.37
2017-10-21T02:23:55.110Z,97.37
2017-10-21T02:24:55.104Z,97.56
2017-10-21T02:25:54.771Z,97.8
2017-10-21T02:26:55.084Z,97.75
2017-10-21T02:27:55.076Z,97.27
2017-10-21T02:28:55.068Z,97.37
2017-10-21T02:29:55.061Z,97.37
2017-10-21T02:30:55.059Z,97.08
2017-10-21T02:31:55.050Z,97.37
2017-10-21T02:32:55.039Z,97.75
2017-10-21T02:33:55.037Z,97.46
2017-10-21T02:34:55.025Z,97.27
2017-10-21T02:35:55.014Z,97.75
2017-10-21T02:36:55.005Z,97.37
2017-10-21T02:37:55.002Z,97.66
2017-10-21T02:38:54.996Z,97.27
2017-10-21T02:39:54.981Z,97.46
2017-10-21T02:40:54.651Z,97.46
2017-10-21T02:41:54.643Z,97.08
2017-10-21T02:42:54.959Z,97.27
2017-10-21T02:43:54.956Z,97.17
2017-10-21T02:44:54.948Z,97.27
2017-10-21T02:45:54.940Z,97.17
2017-10-21T02:46:54.932Z,97.17
2017-10-21T02:47:54.915Z,97.37
2017-10-21T02:48:54.586Z,97.75
2017-10-21T02:49:54.905Z,97.56
2017-10-21T02:50:54.573Z,97.56
2017-10-21T02:51:54.887Z,97.66
2017-10-21T02:52:54.875Z,97.66
2017-10-21T02:53:54.872Z,97.75
2017-10-21T02:54:54.861Z,97.94
2017-10-21T02:55:54.856Z,98.32
2017-10-21T02:56:54.522Z,97.85
2017-10-21T02:57:54.837Z,97.46
2017-10-21T02:58:54.827Z,97.37
2017-10-21T02:59:54.497Z,97.94
2017-10-21T03:00:54.830Z,97.75
2017-10-21T03:01:54.814Z,97.75
2017-10-21T03:02:54.795Z,97.75
2017-10-21T03:03:54.466Z,98.03
2017-10-21T03:04:54.782Z,97.94
2017-10-21T03:05:54.783Z,97.85
2017-10-21T03:06:54.769Z,97.85
2017-10-21T03:07:54.754Z,97.75
2017-10-21T03:08:54.745Z,97.75
2017-10-21T03:09:54.739Z,97.85
2017-10-21T03:10:54.736Z,97.85
2017-10-21T03:11:54.724Z,97.94
2017-10-21T03:12:54.710Z,98.13
2017-10-21T03:13:54.706Z,98.13
2017-10-21T03:14:54.696Z,97.85
2017-10-21T03:15:54.710Z,97.61
2017-10-21T03:16:54.680Z,97.94
2017-10-21T03:17:54.674Z,97.89
2017-10-21T03:18:54.667Z,97.8
2017-10-21T03:19:54.331Z,97.89
2017-10-21T03:20:54.650Z,97.99
2017-10-21T03:21:54.642Z,98.18
2017-10-21T03:22:54.633Z,97.89
2017-10-21T03:23:54.624Z,98.18
2017-10-21T03:24:54.621Z,97.8
2017-10-21T03:25:54.608Z,97.8
2017-10-21T03:26:54.598Z,97.8
2017-10-21T03:27:54.592Z,98.27
2017-10-21T03:28:54.583Z,98.27
2017-10-21T03:29:54.250Z,98.36
2017-10-21T03:30:54.241Z,97.99
2017-10-21T03:31:54.557Z,97.99
2017-10-21T03:32:54.551Z,98.08
2017-10-21T03:33:54.540Z,98.36
2017-10-21T03:34:54.534Z,98.27
2017-10-21T03:35:54.525Z,98.36
2017-10-21T03:36:54.192Z,98.85
2017-10-21T03:37:54.179Z,98.75
2017-10-21T03:38:54.498Z,98.46
2017-10-21T03:39:54.493Z,98.13
2017-10-21T03:40:54.480Z,98.22
2017-10-21T03:41:54.470Z,98.99
2017-10-21T03:42:54.462Z,98.79
2017-10-21T03:43:54.461Z,98.6
2017-10-21T03:44:54.447Z,98.79
2017-10-21T03:45:54.115Z,98.6
2017-10-21T03:46:54.425Z,98.6
2017-10-21T03:47:54.418Z,98.89
2017-10-21T03:48:54.407Z,98.65
2017-10-21T03:49:54.401Z,98.89
2017-10-21T03:50:54.394Z,99.27
2017-10-21T03:51:54.384Z,98.94
2017-10-21T03:52:54.377Z,98.65
2017-10-21T03:53:54.366Z,99.13
2017-10-21T03:54:54.354Z,98.85
2017-10-21T03:55:54.352Z,98.65
2017-10-21T03:56:54.344Z,98.85
2017-10-21T03:57:54.332Z,98.94
2017-10-21T03:58:54.327Z,98.85
2017-10-21T03:59:54.314Z,98.46
2017-10-21T04:00:53.983Z,98.36
2017-10-21T04:01:54.300Z,98.36
2017-10-21T04:02:54.288Z,98.36
2017-10-21T04:03:54.277Z,98.27
2017-10-21T04:04:54.282Z,98.56
2017-10-21T04:05:54.269Z,98.56
2017-10-21T04:06:54.258Z,98.46
2017-10-21T04:07:54.248Z,98.27
2017-10-21T04:08:53.916Z,97.8
2017-10-21T04:09:54.229Z,97.8
2017-10-21T04:10:54.231Z,98.18
2017-10-21T04:11:54.214Z,98.08
2017-10-21T04:12:54.205Z,98.08
2017-10-21T04:13:53.874Z,97.75
2017-10-21T04:14:54.189Z,98.03
2017-10-21T04:15:54.176Z,97.94
2017-10-21T04:16:54.172Z,97.66
2017-10-21T04:17:54.166Z,98.03
2017-10-21T04:18:54.156Z,97.66
2017-10-21T04:19:54.150Z,97.94
2017-10-21T04:20:54.141Z,97.37
2017-10-21T04:21:54.127Z,97.46
2017-10-21T04:22:54.120Z,97.37
2017-10-21T04:23:54.112Z,97.46
2017-10-21T04:24:54.104Z,97.37
2017-10-21T04:25:54.097Z,97.27
2017-10-21T04:26:54.094Z,97.46
2017-10-21T04:27:54.080Z,97.66
2017-10-21T04:28:54.072Z,97.75
2017-10-21T04:29:54.063Z,97.46
2017-10-21T04:30:54.054Z,97.46
2017-10-21T04:31:53.724Z,97.37
2017-10-21T04:32:54.038Z,97.27
2017-10-21T04:33:54.030Z,97.66
2017-10-21T04:34:54.021Z,97.37
2017-10-21T04:35:54.015Z,97.46
2017-10-21T04:36:54.004Z,97.27
2017-10-21T04:37:54.002Z,97.27
2017-10-21T04:38:53.988Z,97.27
2017-10-21T04:39:53.981Z,97.27
2017-10-21T04:40:53.971Z,97.17
2017-10-21T04:41:53.965Z,97.46
2017-10-21T04:42:53.953Z,97.27
2017-10-21T04:43:53.954Z,97.17
2017-10-21T04:44:53.614Z,96.98
2017-10-21T04:45:53.934Z,96.98
2017-10-21T04:46:53.925Z,96.89
2017-10-21T04:47:53.921Z,96.89
2017-10-21T04:48:53.905Z,97.08
2017-10-21T04:49:53.900Z,96.89
2017-10-21T04:50:53.893Z,96.98
2017-10-21T04:51:53.884Z,96.98
2017-10-21T04:52:53.881Z,96.89
2017-10-21T04:53:53.866Z,97.66
2017-10-21T04:54:53.856Z,97.46
2017-10-21T04:55:53.851Z,97.27
2017-10-21T04:56:53.842Z,97.66
2017-10-21T04:57:53.833Z,97.8
2017-10-21T04:58:53.501Z,97.61
2017-10-21T04:59:53.817Z,97.56
2017-10-21T05:00:53.486Z,97.22
2017-10-21T05:01:53.804Z,97.51
2017-10-21T05:02:53.793Z,97.75
2017-10-21T05:03:53.786Z,97.85
2017-10-21T05:04:53.778Z,97.66
2017-10-21T05:05:53.766Z,97.56
2017-10-21T05:06:53.761Z,97.37
2017-10-21T05:07:53.755Z,97.75
2017-10-21T05:08:53.744Z,97.27
2017-10-21T05:09:53.740Z,97.17
2017-10-21T05:10:53.728Z,97.46
2017-10-21T05:11:53.719Z,97.27
2017-10-21T05:12:53.713Z,97.37
2017-10-21T05:13:53.697Z,97.37
2017-10-21T05:14:53.703Z,97.66
2017-10-21T05:15:53.362Z,97.66
2017-10-21T05:16:53.677Z,97.56
2017-10-21T05:17:53.664Z,97.94
2017-10-21T05:18:53.660Z,97.94
2017-10-21T05:19:53.651Z,97.46
2017-10-21T05:20:53.645Z,97.17
2017-10-21T05:21:53.314Z,97.75
2017-10-21T05:22:53.626Z,97.46
2017-10-21T05:23:53.619Z,97.17
2017-10-21T05:24:53.287Z,97.17
2017-10-21T05:25:53.603Z,97.27
2017-10-21T05:26:53.594Z,97.46
2017-10-21T05:27:53.595Z,97.27
2017-10-21T05:28:53.577Z,97.27
2017-10-21T05:29:53.572Z,97.17
2017-10-21T05:30:53.566Z,97.37
2017-10-21T05:31:53.556Z,97.46
2017-10-21T05:32:53.541Z,97.46
2017-10-21T05:33:53.538Z,97.46
2017-10-21T05:34:53.534Z,97.46
2017-10-21T05:35:53.199Z,97.66
2017-10-21T05:36:53.509Z,96.89
2017-10-21T05:37:53.508Z,97.17
2017-10-21T05:38:53.496Z,96.98
2017-10-21T05:39:53.487Z,97.08
2017-10-21T05:40:53.479Z,96.61
2017-10-21T05:41:53.473Z,97.17
2017-10-21T05:42:53.461Z,97.17
2017-10-21T05:43:53.459Z,96.61
2017-10-21T05:44:53.447Z,96.8
2017-10-21T05:45:53.439Z,96.61
2017-10-21T05:46:53.438Z,96.7
2017-10-21T05:47:53.420Z,96.8
2017-10-21T05:48:53.416Z,97.08
2017-10-21T05:49:53.407Z,97.27
2017-10-21T05:50:53.401Z,96.7
2017-10-21T05:51:53.390Z,96.7
2017-10-21T05:52:53.386Z,97.08
2017-10-21T05:53:53.375Z,96.94
2017-10-21T05:54:53.363Z,96.94
2017-10-21T05:55:53.371Z,96.98
2017-10-21T05:56:53.350Z,97.03
2017-10-21T05:57:53.343Z,96.8
2017-10-21T05:58:53.335Z,96.84
2017-10-21T05:59:53.336Z,96.84
2017-10-21T06:00:53.320Z,97.03
2017-10-21T06:01:53.310Z,96.37
2017-10-21T06:02:53.304Z,96.27
2017-10-21T06:03:52.972Z,96.37
2017-10-21T06:04:53.293Z,96.84
2017-10-21T06:05:52.954Z,96.75
2017-10-21T06:06:53.271Z,96.84
2017-10-21T06:07:53.267Z,96.37
2017-10-21T06:08:53.254Z,96.17
2017-10-21T06:09:53.247Z,96.37
2017-10-21T06:10:53.239Z,95.98
2017-10-21T06:11:53.242Z,95.89
2017-10-21T06:12:53.229Z,96.17
2017-10-21T06:13:53.224Z,95.89
2017-10-21T06:14:53.207Z,96.17
2017-10-21T06:15:53.199Z,95.89
2017-10-21T06:16:53.196Z,96.08
2017-10-21T06:17:53.185Z,96.22
2017-10-21T06:18:53.175Z,95.84
2017-10-21T06:19:53.170Z,95.75
2017-10-21T06:20:53.164Z,95.84
2017-10-21T06:21:53.186Z,95.84
2017-10-21T06:22:52.823Z,96.03
2017-10-21T06:23:52.844Z,96.03
2017-10-21T06:24:53.137Z,95.46
2017-10-21T06:25:53.123Z,95.75
2017-10-21T06:26:53.119Z,95.08
2017-10-21T06:27:53.111Z,95.27
2017-10-21T06:28:53.104Z,94.98
2017-10-21T06:29:53.093Z,95.22
2017-10-21T06:30:53.090Z,95.17
2017-10-21T06:31:53.081Z,95.22
2017-10-21T06:32:53.072Z,95.03
2017-10-21T06:33:53.067Z,94.93
2017-10-21T06:34:53.054Z,94.74
2017-10-21T06:35:53.052Z,94.84
2017-10-21T06:36:53.045Z,94.55
2017-10-21T06:37:53.038Z,94.65
2017-10-21T06:38:53.031Z,94.46
2017-10-21T06:39:52.702Z,94.46
2017-10-21T06:40:53.017Z,94.55
2017-10-21T06:41:53.007Z,94.36
2017-10-21T06:42:53.004Z,94.46
2017-10-21T06:43:52.993Z,94.07
2017-10-21T06:44:52.986Z,94.17
2017-10-21T06:45:52.979Z,94.27
2017-10-21T06:46:52.974Z,94.46
2017-10-21T06:47:52.969Z,94.17
2017-10-21T06:48:52.960Z,94.17
2017-10-21T06:49:52.952Z,94.36
2017-10-21T06:50:52.950Z,94.41
2017-10-21T06:51:52.938Z,94.07
2017-10-21T06:52:52.933Z,94.41
2017-10-21T06:53:52.602Z,94.27
2017-10-21T06:54:52.917Z,94.02
2017-10-21T06:55:52.911Z,94.41
2017-10-21T06:56:52.906Z,94.41
2017-10-21T06:57:52.575Z,94.02
2017-10-21T06:58:52.890Z,94.51
2017-10-21T06:59:52.888Z,94.22
2017-10-21T07:00:52.553Z,94.41
2017-10-21T07:01:52.873Z,94.12
2017-10-21T07:02:52.865Z,94.02
2017-10-21T07:03:52.856Z,94.02
2017-10-21T07:04:52.881Z,94.02
2017-10-21T07:05:52.842Z,93.93
2017-10-21T07:06:52.512Z,94.22
2017-10-21T07:07:52.829Z,94.22
2017-10-21T07:08:52.825Z,93.55
2017-10-21T07:09:52.815Z,94.12
2017-10-21T07:10:52.807Z,93.65
2017-10-21T07:11:52.798Z,93.88
2017-10-21T07:12:52.794Z,93.55
2017-10-21T07:13:52.789Z,93.6
2017-10-21T07:14:52.778Z,92.93
2017-10-21T07:15:52.784Z,93.6
2017-10-21T07:16:52.445Z,93.45
2017-10-21T07:17:52.759Z,93.69
2017-10-21T07:18:52.753Z,93.5
2017-10-21T07:19:52.424Z,93.12
2017-10-21T07:20:52.743Z,93.6
2017-10-21T07:21:52.733Z,93.79
2017-10-21T07:22:52.725Z,93.69
2017-10-21T07:23:52.398Z,93.6
2017-10-21T07:24:52.711Z,93.4
2017-10-21T07:25:52.712Z,93.69
2017-10-21T07:26:52.697Z,93.69
2017-10-21T07:27:52.696Z,93.79
2017-10-21T07:28:52.688Z,93.88
2017-10-21T07:29:52.693Z,93.6
2017-10-21T07:30:52.352Z,93.21
2017-10-21T07:31:52.666Z,93.21
2017-10-21T07:32:52.658Z,93.4
2017-10-21T07:33:52.654Z,93.21
2017-10-21T07:34:52.649Z,92.93
2017-10-21T07:35:52.645Z,92.64
2017-10-21T07:36:52.634Z,92.54
2017-10-21T07:37:52.631Z,92.78
2017-10-21T07:38:52.623Z,92.74
2017-10-21T07:39:52.617Z,92.88
2017-10-21T07:40:52.620Z,92.49
2017-10-21T07:41:52.604Z,92.83
2017-10-21T07:42:52.602Z,92.4
2017-10-21T07:43:52.594Z,92.88
2017-10-21T07:44:52.260Z,92.21
2017-10-21T07:45:52.603Z,92.59
2017-10-21T07:46:52.572Z,92.49
2017-10-21T07:47:52.244Z,92.49
2017-10-21T07:48:52.561Z,92.21
2017-10-21T07:49:52.552Z,92.49
2017-10-21T07:50:52.545Z,91.63
2017-10-21T07:51:52.545Z,91.83
2017-10-21T07:52:52.213Z,91.92
2017-10-21T07:53:52.530Z,92.25
2017-10-21T07:54:52.527Z,92.3
2017-10-21T07:55:52.519Z,91.97
2017-10-21T07:56:52.189Z,91.77
2017-10-21T07:57:52.506Z,91.49
2017-10-21T07:58:52.506Z,91.77
2017-10-21T07:59:52.494Z,91.49
2017-10-21T08:00:52.488Z,91.3
2017-10-21T08:01:52.480Z,91.49
2017-10-21T08:02:52.479Z,91.49
2017-10-21T08:03:52.482Z,91.11
2017-10-21T08:04:52.469Z,91.39
2017-10-21T08:05:52.138Z,91.87
2017-10-21T08:06:52.458Z,91.39
2017-10-21T08:07:52.451Z,90.77
2017-10-21T08:08:52.447Z,91.05
2017-10-21T08:09:52.116Z,91.05
2017-10-21T08:10:52.433Z,91.25
2017-10-21T08:11:52.127Z,91.05
2017-10-21T08:12:52.427Z,91.15
2017-10-21T08:13:52.095Z,90.48
2017-10-21T08:14:52.412Z,90.29
2017-10-21T08:15:52.085Z,90.39
2017-10-21T08:16:52.405Z,90.29
2017-10-21T08:17:52.401Z,90.19
2017-10-21T08:18:52.068Z,90.09
2017-10-21T08:19:52.391Z,90.09
2017-10-21T08:20:52.386Z,90.19
2017-10-21T08:21:52.379Z,90.29
2017-10-21T08:22:52.368Z,91.05
2017-10-21T08:23:52.367Z,91.15
2017-10-21T08:24:52.363Z,90.77
2017-10-21T08:25:52.355Z,90.39
2017-10-21T08:26:52.350Z,90.09
2017-10-21T08:27:52.344Z,90.39
2017-10-21T08:28:52.339Z,90.39
2017-10-21T08:29:52.334Z,90.09
2017-10-21T08:30:52.331Z,89.9
2017-10-21T08:31:52.322Z,89.81
2017-10-21T08:32:52.321Z,89.86
2017-10-21T08:33:52.310Z,89.81
2017-10-21T08:34:52.315Z,89.62
2017-10-21T08:35:51.981Z,89.81
2017-10-21T08:36:52.302Z,89.81
2017-10-21T08:37:52.292Z,89.66
2017-10-21T08:38:52.625Z,90
2017-10-21T08:39:52.288Z,89.81
2017-10-21T08:40:52.276Z,89.95
2017-10-21T08:41:52.273Z,89.95
2017-10-21T08:42:52.266Z,90
2017-10-21T08:43:52.263Z,89.81
2017-10-21T08:44:51.934Z,89.9
2017-10-21T08:45:52.255Z,89.9
2017-10-21T08:46:52.253Z,90
2017-10-21T08:47:52.242Z,89.9
2017-10-21T08:48:51.911Z,90
2017-10-21T08:49:52.232Z,90.29
2017-10-21T08:50:52.235Z,90.09
2017-10-21T08:51:52.221Z,90.48
2017-10-21T08:52:52.215Z,90.29
2017-10-21T08:53:52.210Z,90.19
2017-10-21T08:54:52.210Z,90.43
2017-10-21T08:55:52.249Z,90.19
2017-10-21T08:56:52.194Z,90.39
2017-10-21T08:57:52.190Z,90.09
2017-10-21T08:58:52.187Z,90.19
2017-10-21T08:59:52.180Z,90.14
2017-10-21T09:00:52.173Z,90.39
2017-10-21T09:01:52.168Z,89.81
2017-10-21T09:02:51.840Z,89.66
2017-10-21T09:03:52.159Z,89.62
2017-10-21T09:04:52.152Z,89.81
2017-10-21T09:05:51.824Z,89.52
2017-10-21T09:06:52.141Z,89.9
2017-10-21T09:07:51.812Z,89.86
2017-10-21T09:08:52.132Z,89.86
2017-10-21T09:09:52.132Z,89.95
2017-10-21T09:10:51.795Z,89.86
2017-10-21T09:11:52.115Z,89.66
2017-10-21T09:12:52.111Z,89.18
2017-10-21T09:13:52.109Z,89.18
2017-10-21T09:14:52.106Z,89.47
2017-10-21T09:15:52.096Z,89.18
2017-10-21T09:16:52.098Z,89.47
2017-10-21T09:17:51.783Z,89.37
2017-10-21T09:18:52.080Z,89.37
2017-10-21T09:19:52.075Z,89.47
2017-10-21T09:20:52.071Z,89.37
2017-10-21T09:21:51.742Z,89.47
2017-10-21T09:22:51.735Z,89.37
2017-10-21T09:23:52.054Z,89.28
2017-10-21T09:24:52.056Z,89.09
2017-10-21T09:25:52.050Z,89.18
2017-10-21T09:26:51.717Z,88.9
2017-10-21T09:27:52.032Z,88.7
2017-10-21T09:28:52.043Z,88.8
2017-10-21T09:29:52.027Z,88.8
2017-10-21T09:30:52.018Z,88.99
2017-10-21T09:31:52.013Z,88.8
2017-10-21T09:32:52.006Z,89.37
2017-10-21T09:33:52.003Z,88.99
2017-10-21T09:34:52.002Z,88.99
2017-10-21T09:35:51.995Z,88.9
2017-10-21T09:36:51.994Z,89.09
2017-10-21T09:37:51.987Z,89.52
2017-10-21T09:38:51.978Z,89.81
2017-10-21T09:39:51.975Z,89.52
2017-10-21T09:40:51.969Z,89.52
2017-10-21T09:41:51.642Z,89.9
2017-10-21T09:42:51.642Z,89.9
2017-10-21T09:43:51.992Z,89.9
2017-10-21T09:44:51.949Z,90
2017-10-21T09:45:51.958Z,90
2017-10-21T09:46:51.941Z,89.9
2017-10-21T09:47:51.936Z,89.9
2017-10-21T09:48:51.929Z,89.9
2017-10-21T09:49:51.928Z,90.09
2017-10-21T09:50:51.918Z,90.05
2017-10-21T09:51:51.925Z,89.52
2017-10-21T09:52:51.910Z,89.9
2017-10-21T09:53:51.913Z,89.9
2017-10-21T09:54:51.901Z,89.9
2017-10-21T09:55:51.894Z,89.9
2017-10-21T09:56:51.889Z,89.72
2017-10-21T09:57:51.890Z,89.43
2017-10-21T09:58:51.882Z,89.81
2017-10-21T09:59:51.874Z,89.81
2017-10-21T10:00:51.868Z,90.29
2017-10-21T10:01:51.860Z,90.19
2017-10-21T10:02:51.869Z,90
2017-10-21T10:03:51.872Z,90.29
2017-10-21T10:04:51.846Z,90.19
2017-10-21T10:05:51.843Z,89.81
2017-10-21T10:06:51.838Z,90
2017-10-21T10:07:51.838Z,89.95
2017-10-21T10:08:51.502Z,89.9
2017-10-21T10:09:51.821Z,90
2017-10-21T10:10:51.817Z,89.76
2017-10-21T10:11:51.487Z,89.9
2017-10-21T10:12:51.804Z,89.72
2017-10-21T10:13:51.797Z,89.57
2017-10-21T10:14:51.798Z,90.19
2017-10-21T10:15:51.790Z,89.9
2017-10-21T10:16:51.790Z,89.81
2017-10-21T10:17:51.778Z,89.86
2017-10-21T10:18:51.773Z,90.05
2017-10-21T10:19:51.799Z,90.14
2017-10-21T10:20:51.764Z,89.66
2017-10-21T10:21:51.758Z,89.57
2017-10-21T10:22:51.429Z,89.86
2017-10-21T10:23:51.745Z,89.47
2017-10-21T10:24:51.752Z,89.09
2017-10-21T10:25:51.737Z,89.18
2017-10-21T10:26:51.735Z,89.57
2017-10-21T10:27:51.730Z,89.37
2017-10-21T10:28:51.722Z,89.28
2017-10-21T10:29:51.722Z,88.84
2017-10-21T10:30:51.712Z,89.51
2017-10-21T10:31:51.708Z,88.65
2017-10-21T10:32:51.378Z,88.94
2017-10-21T10:33:51.375Z,89.13
2017-10-21T10:34:51.693Z,89.04
2017-10-21T10:35:51.688Z,89.23
2017-10-21T10:36:51.683Z,88.56
2017-10-21T10:37:51.678Z,88.65
2017-10-21T10:38:51.672Z,88.08
2017-10-21T10:39:51.344Z,87.79
2017-10-21T10:40:51.920Z,87.88
2017-10-21T10:41:51.688Z,87.7
2017-10-21T10:42:51.652Z,87.6
2017-10-21T10:43:51.647Z,87.21
2017-10-21T10:44:51.662Z,86.93
2017-10-21T10:45:51.642Z,86.83
2017-10-21T10:46:51.633Z,87.6
2017-10-21T10:47:51.639Z,87.5
2017-10-21T10:48:51.625Z,87.6
2017-10-21T10:49:51.621Z,87.31
2017-10-21T10:50:51.632Z,87.21
2017-10-21T10:51:51.616Z,86.93
2017-10-21T10:52:51.605Z,86.83
2017-10-21T10:53:51.612Z,86.88
2017-10-21T10:54:51.601Z,87.07
2017-10-21T10:55:51.596Z,86.78
2017-10-21T10:56:51.588Z,86.97
2017-10-21T10:57:51.260Z,86.78
2017-10-21T10:58:51.257Z,87.16
2017-10-21T10:59:51.577Z,86.21
2017-10-21T11:00:51.569Z,86.49
2017-10-21T11:01:51.575Z,86.68
2017-10-21T11:02:51.560Z,86.11
2017-10-21T11:03:51.556Z,86.68
2017-10-21T11:04:51.551Z,86.58
2017-10-21T11:05:51.546Z,86.3
2017-10-21T11:06:51.555Z,86.49
2017-10-21T11:07:51.216Z,86.58
2017-10-21T11:08:51.211Z,86.97
2017-10-21T11:09:51.207Z,86.68
2017-10-21T11:10:51.203Z,86.34
2017-10-21T11:11:51.522Z,86.34
2017-10-21T11:12:51.193Z,86.34
2017-10-21T11:13:51.517Z,86.25
2017-10-21T11:14:51.524Z,86.05
2017-10-21T11:15:51.504Z,85.86
2017-10-21T11:16:51.498Z,85.48
2017-10-21T11:17:51.496Z,86.05
2017-10-21T11:18:51.490Z,85.58
2017-10-21T11:19:51.489Z,85.48
2017-10-21T11:20:51.484Z,85.48
2017-10-21T11:21:51.475Z,85.48
2017-10-21T11:22:51.153Z,85.67
2017-10-21T11:23:51.476Z,85.38
2017-10-21T11:24:51.481Z,85.58
2017-10-21T11:25:51.462Z,85.38
2017-10-21T11:26:51.462Z,84.91
2017-10-21T11:27:51.451Z,84.81
2017-10-21T11:28:51.459Z,85.1
2017-10-21T11:29:51.448Z,84.52
2017-10-21T11:30:51.450Z,84.71
2017-10-21T11:31:51.449Z,83.75
2017-10-21T11:32:51.436Z,83.85
2017-10-21T11:33:51.431Z,84.61
2017-10-21T11:34:51.432Z,84.91
2017-10-21T11:35:51.101Z,85
2017-10-21T11:36:51.420Z,84.91
2017-10-21T11:37:51.092Z,84.61
2017-10-21T11:38:51.409Z,84.71
2017-10-21T11:39:51.406Z,84.71
2017-10-21T11:40:51.402Z,84.91
2017-10-21T11:41:51.083Z,85.38
2017-10-21T11:42:51.395Z,85.1
2017-10-21T11:43:51.389Z,85.28
2017-10-21T11:44:51.396Z,84.71
2017-10-21T11:45:51.380Z,84.91
2017-10-21T11:46:51.055Z,84.71
2017-10-21T11:47:51.049Z,84.86
2017-10-21T11:48:51.046Z,85.34
2017-10-21T11:49:51.367Z,85.53
2017-10-21T11:50:51.038Z,85.15
2017-10-21T11:51:51.356Z,85.19
2017-10-21T11:52:51.349Z,85.34
2017-10-21T11:53:51.026Z,85.53
2017-10-21T11:54:51.018Z,85.72
2017-10-21T11:55:51.342Z,85.34
2017-10-21T11:56:51.338Z,86.01
2017-10-21T11:57:51.336Z,86.3
2017-10-21T11:58:51.327Z,86.21
2017-10-21T11:59:51.000Z,86.01
2017-10-21T12:00:51.318Z,85.72
2017-10-21T12:01:51.316Z,85.82
2017-10-21T12:02:51.312Z,85.92
2017-10-21T12:03:51.304Z,86.11
2017-10-21T12:04:51.304Z,86.21
2017-10-21T12:05:51.297Z,85.82
2017-10-21T12:06:51.293Z,86.21
2017-10-21T12:07:51.287Z,86.01
2017-10-21T12:08:51.289Z,85.92
2017-10-21T12:09:51.279Z,86.3
2017-10-21T12:10:51.279Z,86.21
2017-10-21T12:11:51.272Z,86.3
2017-10-21T12:12:51.270Z,85.86
2017-10-21T12:13:51.260Z,85.77
2017-10-21T12:14:51.260Z,85.19
2017-10-21T12:15:51.272Z,85.44
2017-10-21T12:16:51.249Z,85.53
2017-10-21T12:17:51.246Z,85.63
2017-10-21T12:18:51.246Z,85.53
2017-10-21T12:19:51.233Z,85.53
2017-10-21T12:20:51.232Z,85.25
2017-10-21T12:21:51.226Z,86.21
2017-10-21T12:22:51.224Z,86.01
2017-10-21T12:23:51.223Z,86.3
2017-10-21T12:24:51.217Z,86.3
2017-10-21T12:25:51.208Z,86.01
2017-10-21T12:26:51.213Z,86.4
2017-10-21T12:27:51.202Z,86.21
2017-10-21T12:28:50.875Z,86.49
2017-10-21T12:29:51.194Z,86.68
2017-10-21T12:30:51.190Z,86.49
2017-10-21T12:31:51.190Z,86.01
2017-10-21T12:32:51.183Z,86.01
2017-10-21T12:33:51.176Z,86.49
2017-10-21T12:34:51.176Z,86.3
2017-10-21T12:35:50.851Z,86.01
2017-10-21T12:36:51.168Z,86.01
2017-10-21T12:37:51.160Z,86.4
2017-10-21T12:38:51.161Z,86.49
2017-10-21T12:39:50.826Z,86.3
2017-10-21T12:40:51.148Z,86.01
2017-10-21T12:41:51.145Z,86.49
2017-10-21T12:42:50.817Z,86.11
2017-10-21T12:43:51.138Z,86.11
2017-10-21T12:44:51.130Z,86.01
2017-10-21T12:45:50.802Z,86.05
2017-10-21T12:46:51.123Z,86.15
2017-10-21T12:47:51.116Z,86.05
2017-10-21T12:48:51.115Z,85.67
2017-10-21T12:49:51.107Z,84.91
2017-10-21T12:50:50.779Z,84.52
2017-10-21T12:51:51.101Z,85.1
2017-10-21T12:52:51.098Z,85.19
2017-10-21T12:53:50.769Z,85.63
2017-10-21T12:54:51.091Z,86.01
2017-10-21T12:55:50.760Z,86.01
2017-10-21T12:56:51.091Z,86.01